This is the latest recevied weather packets stored in our database for station/object W7MB. If no packets are shown the sender has not sent any weather packets the latest 10 day(s).
| Time | Temp. | Humidity | Pressure | Rain* | Wind** | Luminosity | Snow |
|---|---|---|---|---|---|---|---|
| 1777851723 | 31.11° C | 25% | 1009.7 hPa | 0 mm | - | - | - |
| 1777851363 | 31.11° C | 26% | 1009.9 hPa | 0 mm | - | - | - |
| 1777851003 | 30.56° C | 23% | 1009.8 hPa | 0 mm | - | - | - |
| 1777850643 | 30.56° C | 26% | 1010 hPa | 0 mm | - | - | - |
| 1777850283 | 30.56° C | 24% | 1010 hPa | 0 mm | - | - | - |
| 1777849923 | 31.11° C | 22% | 1010.3 hPa | 0 mm | - | - | - |
| 1777849563 | 31.67° C | 20% | 1010.4 hPa | 0 mm | - | - | - |
| 1777849203 | 31.11° C | 23% | 1010.4 hPa | 0 mm | - | - | - |
| 1777848843 | 31.11° C | 23% | 1010.5 hPa | 0 mm | - | - | - |
| 1777848483 | 31.11° C | 24% | 1010.6 hPa | 0 mm | - | - | - |
| 1777848123 | 31.11° C | 24% | 1010.8 hPa | 0 mm | - | - | - |
| 1777847763 | 30.56° C | 26% | 1010.9 hPa | 0 mm | - | - | - |
| 1777847403 | 30.56° C | 24% | 1011 hPa | 0 mm | - | - | - |
| 1777847043 | 30.56° C | 25% | 1011.1 hPa | 0 mm | - | - | - |
| 1777846683 | 30.56° C | 21% | 1011.1 hPa | 0 mm | - | - | - |
| 1777846323 | 30.56° C | 24% | 1011.3 hPa | 0 mm | - | - | - |
| 1777845963 | 30.56° C | 28% | 1011.3 hPa | 0 mm | - | - | - |
| 1777845604 | 30° C | 29% | 1011.4 hPa | 0 mm | - | - | - |
| 1777845243 | 30.56° C | 22% | 1011.6 hPa | 0 mm | - | - | - |
| 1777844883 | 31.11° C | 25% | 1011.7 hPa | 0 mm | - | - | - |
| 1777844523 | 30.56° C | 32% | 1011.7 hPa | 0 mm | - | - | - |
| 1777844163 | 30.56° C | 26% | 1011.8 hPa | 0 mm | - | - | - |
| 1777843803 | 30° C | 28% | 1011.8 hPa | 0 mm | - | - | - |
| 1777843443 | 30° C | 30% | 1012 hPa | 0 mm | - | - | - |
| 1777843084 | 30° C | 28% | 1012 hPa | 0 mm | - | - | - |
* Rain latest hour (hover to see other rain measurements)
** Current wind speed in m/s (hover to see current wind gust speed)